Sheregesh, Russia
Current Conditions -  °F | °C
As of 8:30 PM on Wednesday 26 Nov 2014 (Local Time) from UNAA Reporting Station
Broken Clouds Broken Clouds  
Wind Chill:   Ceiling: 10000
Heat Index: 18°   Visibility: 6mi
Dew Point:   Wind: 16mph
Humidity: 58%   Direction: 220°SW
Pressure: 29.88"   Gusts: NA
Location:  52.95°N, 88.03°E
Report Text: UNAA 261330Z 22007MPS 9999 SCT030CB BKN100 M08/M15 Q1012 NOSIGRMK QFE736 20090060
Loading
Personal Weather Stations






























Interactive Weather Map New forecast layout! Learn more

10-Day Weather Forecast

Advertisements
Track Severe Weather on mobile